Time;durP1;ratioP1;P1;durP2;ratioP2;P2;SDS_P1;SDS_P2;PMS_P1;PMS_P2;Temp;Humidity;BMP_temperature;BMP_pressure;BME280_temperature;BME280_humidity;BME280_pressure;Samples;Min_cycle;Max_cycle;Signal;HPM_P1;HPM_P2
2022/09/29 00:00:10;;;;;;;5.70;4.97;;;;;;;-145.23;100.00;58621.06;4962446;28;20799;-56
2022/09/29 00:02:37;;;;;;;7.20;5.00;;;;;;;-145.23;100.00;58621.06;4956991;28;20246;-56
2022/09/29 00:05:05;;;;;;;4.63;4.23;;;;;;;-145.23;100.00;58621.06;4956563;28;20242;-56
2022/09/29 00:07:32;;;;;;;6.37;5.37;;;;;;;-145.23;100.00;58621.06;4953324;28;20240;-57
2022/09/29 00:10:01;;;;;;;5.57;5.07;;;;;;;-145.23;100.00;58621.06;4957828;28;20286;-56
2022/09/29 00:12:28;;;;;;;4.93;4.43;;;;;;;-145.23;100.00;58621.06;4959742;28;20233;-58
2022/09/29 00:14:55;;;;;;;5.73;5.23;;;;;;;-145.23;100.00;58621.06;4965220;28;20910;-56
2022/09/29 00:17:21;;;;;;;6.60;5.13;;;;;;;-145.23;100.00;58621.06;4960500;28;20318;-58
2022/09/29 00:19:49;;;;;;;5.40;4.90;;;;;;;-145.23;100.00;58621.06;4955067;28;20230;-57
2022/09/29 00:22:15;;;;;;;5.80;4.80;;;;;;;-145.23;100.00;58621.06;4958776;28;20289;-59
2022/09/29 00:24:45;;;;;;;5.97;5.37;;;;;;;-145.23;100.00;58621.06;4962253;28;20239;-58
2022/09/29 00:27:14;;;;;;;5.37;4.87;;;;;;;-145.23;100.00;58621.06;4960808;28;20238;-56
2022/09/29 00:29:41;;;;;;;4.97;4.23;;;;;;;-145.23;100.00;58621.06;4964052;28;20243;-58
2022/09/29 00:32:08;;;;;;;4.97;4.47;;;;;;;-145.23;100.00;58621.06;4966899;28;20239;-57
2022/09/29 00:34:35;;;;;;;4.90;4.47;;;;;;;-145.23;100.00;58621.06;4956965;28;20235;-57
2022/09/29 00:37:02;;;;;;;6.07;5.13;;;;;;;-145.23;100.00;58621.06;4967517;28;20238;-58
2022/09/29 00:39:30;;;;;;;5.33;4.83;;;;;;;-145.23;100.00;58621.06;4966369;28;20240;-56
2022/09/29 00:41:57;;;;;;;5.37;4.87;;;;;;;-145.23;100.00;58621.06;4965288;28;20231;-56
2022/09/29 00:45:03;;;;;;;5.27;4.77;;;;;;;-145.23;100.00;58621.06;4958079;28;20243;-57
2022/09/29 00:47:33;;;;;;;5.57;4.23;;;;;;;-145.23;100.00;58621.06;4958817;28;20321;-58
2022/09/29 00:50:03;;;;;;;6.37;5.13;;;;;;;-145.23;100.00;58621.06;4956983;28;20227;-57
2022/09/29 00:52:32;;;;;;;4.93;4.43;;;;;;;-145.23;100.00;58621.06;4962975;28;20230;-57
2022/09/29 00:55:02;;;;;;;5.67;4.53;;;;;;;-145.23;100.00;58621.06;4965570;28;20245;-58
2022/09/29 00:57:32;;;;;;;5.23;4.73;;;;;;;-145.23;100.00;58621.06;4966150;28;20231;-57
2022/09/29 01:00:06;;;;;;;6.37;5.53;;;;;;;-145.23;100.00;58621.06;4965403;28;20231;-58
2022/09/29 01:02:38;;;;;;;5.17;4.37;;;;;;;-145.23;100.00;58621.06;4958263;28;20230;-57
2022/09/29 01:05:08;;;;;;;5.77;4.97;;;;;;;-145.23;100.00;58621.06;4964555;28;20235;-57
2022/09/29 01:07:36;;;;;;;5.33;4.57;;;;;;;-145.23;100.00;58621.06;4959105;28;20243;-57
2022/09/29 01:10:03;;;;;;;4.67;4.27;;;;;;;-145.23;100.00;58621.06;4958956;28;20330;-57
2022/09/29 01:12:31;;;;;;;5.57;4.90;;;;;;;-145.23;100.00;58621.06;4959156;28;20321;-56
2022/09/29 01:14:58;;;;;;;5.10;4.63;;;;;;;-145.23;100.00;58621.06;4959920;28;20238;-57
2022/09/29 01:17:25;;;;;;;5.07;4.60;;;;;;;-145.23;100.00;58621.06;4964354;28;20241;-57
2022/09/29 01:20:01;;;;;;;6.37;5.77;;;;;;;-145.23;100.00;58621.06;4958696;28;20234;-57
2022/09/29 01:23:09;;;;;;;5.40;4.90;;;;;;;-145.23;100.00;58621.06;4963972;28;20774;-57
2022/09/29 01:26:02;;;;;;;5.93;4.67;;;;;;;-145.23;100.00;58621.06;4958523;28;20230;-57
2022/09/29 01:28:48;;;;;;;5.40;4.13;;;;;;;-145.23;100.00;58621.06;4957409;28;20235;-57
2022/09/29 01:31:24;;;;;;;6.03;5.43;;;;;;;-145.23;100.00;58621.06;4960240;28;20285;-57
2022/09/29 01:33:59;;;;;;;5.30;4.80;;;;;;;-145.23;100.00;58621.06;4960726;28;20246;-57
2022/09/29 01:36:35;;;;;;;5.80;5.30;;;;;;;-145.23;100.00;58621.06;4959071;28;20257;-56
2022/09/29 01:39:13;;;;;;;6.07;4.97;;;;;;;-145.23;100.00;58621.06;4967225;28;20783;-56
2022/09/29 01:41:45;;;;;;;6.30;5.37;;;;;;;-145.23;100.00;58621.06;4959906;28;20230;-56
2022/09/29 01:44:16;;;;;;;7.90;5.37;;;;;;;-145.23;100.00;58621.06;4954174;28;20240;-56
2022/09/29 01:46:48;;;;;;;5.47;4.90;;;;;;;-145.23;100.00;58621.06;4953940;28;20243;-57
2022/09/29 01:49:16;;;;;;;5.97;5.27;;;;;;;-145.23;100.00;58621.06;4960437;28;20778;-57
2022/09/29 01:51:47;;;;;;;5.57;4.80;;;;;;;-145.23;100.00;58621.06;4964148;28;20300;-57
2022/09/29 01:54:17;;;;;;;6.00;5.40;;;;;;;-145.23;100.00;58621.06;4956500;28;20753;-57
2022/09/29 01:56:47;;;;;;;6.87;5.63;;;;;;;-145.23;100.00;58621.06;4961310;28;20301;-58
2022/09/29 01:59:18;;;;;;;9.17;6.90;;;;;;;-145.23;100.00;58621.06;4961533;28;20241;-57
2022/09/29 02:01:48;;;;;;;7.37;4.93;;;;;;;-145.23;100.00;58621.06;4962350;28;20278;-57
2022/09/29 02:04:16;;;;;;;5.90;5.30;;;;;;;-145.23;100.00;58621.06;4955485;28;20254;-57
2022/09/29 02:06:47;;;;;;;6.93;6.23;;;;;;;-145.23;100.00;58621.06;4955595;28;20317;-56
2022/09/29 02:09:18;;;;;;;7.30;5.67;;;;;;;-145.23;100.00;58621.06;4952986;28;20647;-57
2022/09/29 02:11:45;;;;;;;6.90;5.90;;;;;;;-145.23;100.00;58621.06;4955770;28;20246;-57
2022/09/29 02:14:14;;;;;;;7.00;5.93;;;;;;;-145.23;100.00;58621.06;4956419;28;20235;-57
2022/09/29 02:16:43;;;;;;;7.10;6.20;;;;;;;-145.23;100.00;58621.06;4963770;28;20237;-57
2022/09/29 02:19:15;;;;;;;8.43;6.83;;;;;;;-145.23;100.00;58621.06;4960220;28;20847;-57
2022/09/29 02:21:43;;;;;;;6.93;6.23;;;;;;;-145.23;100.00;58621.06;4957171;28;20294;-57
2022/09/29 02:24:10;;;;;;;6.70;5.97;;;;;;;-145.23;100.00;58621.06;4962722;28;20242;-57
2022/09/29 02:26:39;;;;;;;8.03;6.03;;;;;;;-145.23;100.00;58621.06;4957385;28;20294;-57
2022/09/29 02:29:06;;;;;;;6.43;5.83;;;;;;;-145.23;100.00;58621.06;4958937;28;20231;-56
2022/09/29 02:31:34;;;;;;;8.17;7.17;;;;;;;-145.23;100.00;58621.06;4956443;28;20290;-57
2022/09/29 02:34:01;;;;;;;6.80;6.10;;;;;;;-145.23;100.00;58621.06;4964979;28;20349;-57
2022/09/29 02:36:34;;;;;;;9.03;6.80;;;;;;;-145.23;100.00;58621.06;4957772;28;20239;-57
2022/09/29 02:39:03;;;;;;;7.27;6.53;;;;;;;-145.23;100.00;58621.06;4958204;28;20624;-60
2022/09/29 02:41:37;;;;;;;7.77;6.23;;;;;;;-145.23;100.00;58621.06;4955760;28;20243;-57
2022/09/29 02:44:33;;;;;;;9.07;7.60;;;;;;;-145.23;100.00;58621.06;4948773;28;20311;-57
2022/09/29 02:47:16;;;;;;;6.80;6.10;;;;;;;-145.23;100.00;58621.06;4962825;28;20242;-56
2022/09/29 02:50:01;;;;;;;8.33;7.13;;;;;;;-145.23;100.00;58621.06;4960426;28;20235;-57
2022/09/29 02:52:37;;;;;;;7.83;7.03;;;;;;;-145.23;100.00;58621.06;4954089;28;20231;-56
2022/09/29 02:55:09;;;;;;;10.00;6.93;;;;;;;-145.23;100.00;58621.06;4953426;28;20301;-58
2022/09/29 02:57:43;;;;;;;6.93;6.23;;;;;;;-145.23;100.00;58621.06;4959062;28;20736;-57
2022/09/29 03:00:12;;;;;;;7.37;6.67;;;;;;;-145.23;100.00;58621.06;4961042;28;20297;-58
2022/09/29 03:02:41;;;;;;;6.67;6.07;;;;;;;-145.23;100.00;58621.06;4964127;28;20721;-56
2022/09/29 03:05:10;;;;;;;8.60;7.57;;;;;;;-145.23;100.00;58621.06;4964765;28;20234;-57
2022/09/29 03:07:38;;;;;;;8.33;7.20;;;;;;;-145.23;100.00;58621.06;4963990;28;20317;-57
2022/09/29 03:10:07;;;;;;;7.33;6.30;;;;;;;-145.23;100.00;58621.06;4963251;28;20230;-57
2022/09/29 03:12:34;;;;;;;8.07;7.27;;;;;;;-145.23;100.00;58621.06;4952101;28;20239;-57
2022/09/29 03:15:00;;;;;;;7.50;6.80;;;;;;;-145.23;100.00;58621.06;4964758;28;20285;-57
2022/09/29 03:17:27;;;;;;;7.40;6.70;;;;;;;-145.23;100.00;58621.06;4962460;28;20293;-57
2022/09/29 03:19:54;;;;;;;7.77;7.07;;;;;;;-145.23;100.00;58621.06;4960009;28;20657;-56
2022/09/29 03:22:21;;;;;;;7.53;6.83;;;;;;;-145.23;100.00;58621.06;4960991;28;20230;-57
2022/09/29 03:24:49;;;;;;;9.73;7.27;;;;;;;-145.23;100.00;58621.06;4961209;28;20234;-57
2022/09/29 03:27:16;;;;;;;8.27;7.47;;;;;;;-145.23;100.00;58621.06;4964511;28;20262;-56
2022/09/29 03:29:43;;;;;;;8.00;7.27;;;;;;;-145.23;100.00;58621.06;4962036;28;20230;-57
2022/09/29 03:32:10;;;;;;;9.90;7.37;;;;;;;-145.23;100.00;58621.06;4958468;28;20314;-57
2022/09/29 03:34:37;;;;;;;6.97;6.23;;;;;;;-145.23;100.00;58621.06;4954841;28;20238;-57
2022/09/29 03:37:05;;;;;;;9.77;7.97;;;;;;;-145.23;100.00;58621.06;4957883;28;20230;-57
2022/09/29 03:39:32;;;;;;;7.80;7.00;;;;;;;-145.23;100.00;58621.06;4957891;28;20238;-57
2022/09/29 03:42:00;;;;;;;9.83;7.83;;;;;;;-145.23;100.00;58621.06;4957562;28;20238;-57
2022/09/29 03:44:27;;;;;;;8.17;7.40;;;;;;;-145.23;100.00;58621.06;4966418;28;20625;-57
2022/09/29 03:46:54;;;;;;;8.20;7.07;;;;;;;-145.23;100.00;58621.06;4964428;28;20242;-56
2022/09/29 03:49:20;;;;;;;8.10;7.27;;;;;;;-145.23;100.00;58621.06;4957982;28;20839;-57
2022/09/29 03:51:47;;;;;;;8.93;8.03;;;;;;;-145.23;100.00;58621.06;4962311;28;20232;-57
2022/09/29 03:54:14;;;;;;;10.03;8.10;;;;;;;-145.23;100.00;58621.06;4958884;28;20245;-56
2022/09/29 03:56:41;;;;;;;9.00;8.10;;;;;;;-145.23;100.00;58621.06;4952344;28;20230;-57
2022/09/29 03:59:11;;;;;;;8.57;7.00;;;;;;;-145.23;100.00;58621.06;4962815;28;20226;-57
2022/09/29 04:01:38;;;;;;;8.00;7.20;;;;;;;-145.23;100.00;58621.06;4960700;28;20230;-57
2022/09/29 04:04:05;;;;;;;7.20;6.50;;;;;;;-145.23;100.00;58621.06;4958878;28;20235;-57
2022/09/29 04:06:32;;;;;;;7.83;7.13;;;;;;;-145.23;100.00;58621.06;4960867;28;20246;-57
2022/09/29 04:08:59;;;;;;;7.90;7.10;;;;;;;-145.23;100.00;58621.06;4953810;28;20246;-57
2022/09/29 04:11:26;;;;;;;9.17;7.67;;;;;;;-145.23;100.00;58621.06;4962236;28;20278;-57
2022/09/29 04:13:53;;;;;;;8.10;7.30;;;;;;;-145.23;100.00;58621.06;4953592;28;20678;-57
2022/09/29 04:16:21;;;;;;;7.67;6.87;;;;;;;-145.23;100.00;58621.06;4961888;28;20662;-57
2022/09/29 04:18:48;;;;;;;8.10;7.30;;;;;;;-145.23;100.00;58621.06;4959054;28;20281;-57
2022/09/29 04:21:15;;;;;;;9.17;7.53;;;;;;;-145.23;100.00;58621.06;4950482;28;20389;-57
2022/09/29 04:23:42;;;;;;;9.63;7.70;;;;;;;-145.23;100.00;58621.06;4960345;28;20999;-58
2022/09/29 04:26:09;;;;;;;9.60;7.87;;;;;;;-145.23;100.00;58621.06;4960113;28;20324;-56
2022/09/29 04:28:37;;;;;;;8.70;7.80;;;;;;;-145.23;100.00;58621.06;4955486;28;20607;-57
2022/09/29 04:31:04;;;;;;;9.70;7.67;;;;;;;-145.23;100.00;58621.06;4964470;28;20241;-57
2022/09/29 04:33:32;;;;;;;8.90;7.97;;;;;;;-145.23;100.00;58621.06;4955067;28;20700;-56
2022/09/29 04:36:00;;;;;;;10.30;8.50;;;;;;;-145.23;100.00;58621.06;4962729;28;20234;-57
2022/09/29 04:38:27;;;;;;;11.40;8.40;;;;;;;-145.23;100.00;58621.06;4951925;28;20446;-57
2022/09/29 04:40:54;;;;;;;9.13;8.27;;;;;;;-145.23;100.00;58621.06;4963103;28;20293;-57
2022/09/29 04:43:20;;;;;;;11.90;8.20;;;;;;;-145.23;100.00;58621.06;4963744;28;20239;-57
2022/09/29 04:45:47;;;;;;;8.07;7.27;;;;;;;-145.23;100.00;58621.06;4960533;28;20232;-57
2022/09/29 04:48:14;;;;;;;11.87;8.83;;;;;;;-145.23;100.00;58621.06;4952805;28;20339;-57
2022/09/29 04:50:42;;;;;;;10.13;8.70;;;;;;;-145.23;100.00;58621.06;4954121;28;20247;-57
2022/09/29 04:53:10;;;;;;;8.20;7.13;;;;;;;-145.23;100.00;58621.06;4955738;28;20716;-57
2022/09/29 04:55:37;;;;;;;8.20;7.30;;;;;;;-145.23;100.00;58621.06;4961277;28;20308;-57
2022/09/29 04:58:06;;;;;;;8.87;7.97;;;;;;;-145.23;100.00;58621.06;4962606;28;21912;-57
2022/09/29 05:00:34;;;;;;;9.00;8.10;;;;;;;-145.23;100.00;58621.06;4956437;28;20688;-57
2022/09/29 05:03:00;;;;;;;9.20;7.50;;;;;;;-145.23;100.00;58621.06;4960755;28;20231;-57
2022/09/29 05:05:27;;;;;;;11.77;9.10;;;;;;;-145.23;100.00;58621.06;4966335;28;20316;-57
2022/09/29 05:07:58;;;;;;;9.10;8.20;;;;;;;-145.23;100.00;58621.06;4966556;28;20242;-58
2022/09/29 05:10:25;;;;;;;10.20;8.83;;;;;;;-145.23;100.00;58621.06;4966008;28;20231;-57
2022/09/29 05:12:51;;;;;;;8.17;7.37;;;;;;;-145.23;100.00;58621.06;4959939;28;20230;-57
2022/09/29 05:15:19;;;;;;;9.63;8.20;;;;;;;-145.23;100.00;58621.06;4960982;28;20258;-57
2022/09/29 05:17:46;;;;;;;9.63;8.43;;;;;;;-145.23;100.00;58621.06;4957026;28;20315;-57
2022/09/29 05:20:13;;;;;;;9.77;8.53;;;;;;;-145.23;100.00;58621.06;4963771;28;20238;-57
2022/09/29 05:22:42;;;;;;;11.07;9.43;;;;;;;-145.23;100.00;58621.06;4964113;28;20253;-57
2022/09/29 05:25:10;;;;;;;9.53;8.53;;;;;;;-145.23;100.00;58621.06;4961535;28;20297;-57
2022/09/29 05:27:37;;;;;;;10.00;8.67;;;;;;;-145.23;100.00;58621.06;4964817;28;20712;-57
2022/09/29 05:30:08;;;;;;;10.77;8.93;;;;;;;-145.23;100.00;58621.06;4964414;28;20755;-58
2022/09/29 05:32:35;;;;;;;9.17;7.80;;;;;;;-145.23;100.00;58621.06;4953543;28;20251;-57
2022/09/29 05:35:02;;;;;;;10.60;8.77;;;;;;;-145.23;100.00;58621.06;4961158;28;20246;-57
2022/09/29 05:37:29;;;;;;;11.30;9.33;;;;;;;-145.23;100.00;58621.06;4964156;28;20789;-57
2022/09/29 05:39:56;;;;;;;10.73;9.00;;;;;;;-145.23;100.00;58621.06;4965195;28;20231;-57
2022/09/29 05:42:26;;;;;;;10.93;9.27;;;;;;;-145.23;100.00;58621.06;4967367;28;20783;-57
2022/09/29 05:44:53;;;;;;;9.97;7.97;;;;;;;-145.23;100.00;58621.06;4962934;28;20270;-57
2022/09/29 05:47:19;;;;;;;11.60;8.93;;;;;;;-145.23;100.00;58621.06;4958180;28;20234;-57
2022/09/29 05:49:46;;;;;;;9.63;8.63;;;;;;;-145.23;100.00;58621.06;4956496;28;20239;-57
2022/09/29 05:52:13;;;;;;;9.17;8.27;;;;;;;-145.23;100.00;58621.06;4961147;28;20230;-58
2022/09/29 05:54:39;;;;;;;9.30;8.33;;;;;;;-145.23;100.00;58621.06;4961814;28;20305;-57
2022/09/29 05:57:06;;;;;;;11.17;9.07;;;;;;;-145.23;100.00;58621.06;4959165;28;20729;-57
2022/09/29 05:59:34;;;;;;;10.23;8.23;;;;;;;-145.23;100.00;58621.06;4956254;28;20314;-57
2022/09/29 06:02:01;;;;;;;10.50;8.10;;;;;;;-145.23;100.00;58621.06;4959928;28;20235;-57
2022/09/29 06:04:27;;;;;;;9.63;8.40;;;;;;;-145.23;100.00;58621.06;4957368;28;20243;-57
2022/09/29 06:06:56;;;;;;;13.30;9.77;;;;;;;-145.23;100.00;58621.06;4959404;28;20242;-57
2022/09/29 06:09:22;;;;;;;10.93;8.87;;;;;;;-145.23;100.00;58621.06;4958661;28;20325;-57
2022/09/29 06:11:50;;;;;;;9.73;8.47;;;;;;;-145.23;100.00;58621.06;4957128;28;20239;-58
2022/09/29 06:14:16;;;;;;;10.87;9.63;;;;;;;-145.23;100.00;58621.06;4966261;28;20245;-57
2022/09/29 06:16:45;;;;;;;10.40;9.23;;;;;;;-145.23;100.00;58621.06;4957605;28;20468;-57
2022/09/29 06:19:12;;;;;;;11.53;9.47;;;;;;;-145.23;100.00;58621.06;4961173;28;20326;-57
2022/09/29 06:21:39;;;;;;;9.90;8.90;;;;;;;-145.23;100.00;58621.06;4964673;28;21804;-57
2022/09/29 06:24:07;;;;;;;11.27;9.43;;;;;;;-145.23;100.00;58621.06;4964833;28;20239;-57
2022/09/29 06:26:34;;;;;;;10.53;9.07;;;;;;;-145.23;100.00;58621.06;4964849;28;20231;-56
2022/09/29 06:29:00;;;;;;;12.27;8.83;;;;;;;-145.23;100.00;58621.06;4964098;28;20241;-57
2022/09/29 06:31:29;;;;;;;14.13;9.37;;;;;;;-145.23;100.00;58621.06;4965398;28;20338;-56
2022/09/29 06:33:58;;;;;;;10.77;9.13;;;;;;;-145.23;100.00;58621.06;4961389;28;20234;-57
2022/09/29 06:39:12;;;;;;;11.53;10.07;;;;;;;-145.23;100.00;58621.06;4962420;28;20735;-56
2022/09/29 06:41:39;;;;;;;10.20;8.80;;;;;;;-145.23;100.00;58621.06;4955958;28;21802;-57
2022/09/29 06:44:06;;;;;;;10.93;8.53;;;;;;;-145.23;100.00;58621.06;4953462;28;20243;-56
2022/09/29 06:46:34;;;;;;;11.73;8.20;;;;;;;-145.23;100.00;58621.06;4960385;28;20256;-57
2022/09/29 06:49:02;;;;;;;10.23;8.87;;;;;;;-145.23;100.00;58621.06;4955129;28;20886;-56
2022/09/29 06:51:29;;;;;;;11.33;9.17;;;;;;;-145.23;100.00;58621.06;4951815;28;20230;-57
2022/09/29 06:53:56;;;;;;;11.97;9.17;;;;;;;-145.23;100.00;58621.06;4959542;28;20239;-57
2022/09/29 06:56:23;;;;;;;9.73;7.57;;;;;;;-145.23;100.00;58621.06;4959034;28;20230;-57
2022/09/29 06:58:49;;;;;;;13.40;9.23;;;;;;;-145.23;100.00;58621.06;4958097;28;20236;-57
2022/09/29 07:01:16;;;;;;;11.03;9.10;;;;;;;-145.23;100.00;58621.06;4956581;28;20595;-63
2022/09/29 07:03:43;;;;;;;9.87;8.53;;;;;;;-145.23;100.00;58621.06;4962633;28;20235;-58
2022/09/29 07:06:11;;;;;;;10.30;8.00;;;;;;;-145.23;100.00;58621.06;4958060;28;20724;-64
2022/09/29 07:08:39;;;;;;;14.67;10.60;;;;;;;-145.23;100.00;58621.06;4960241;28;20234;-59
2022/09/29 07:11:06;;;;;;;10.63;9.40;;;;;;;-145.23;100.00;58621.06;4960320;28;20768;-59
2022/09/29 07:13:33;;;;;;;9.73;8.73;;;;;;;-145.23;100.00;58621.06;4964747;28;20289;-58
2022/09/29 07:16:05;;;;;;;11.87;9.53;;;;;;;-145.23;100.00;58621.06;4963714;28;20724;-56
2022/09/29 07:18:33;;;;;;;11.77;8.83;;;;;;;-145.23;100.00;58621.06;4955552;28;20297;-57
2022/09/29 07:21:00;;;;;;;11.17;9.20;;;;;;;-145.23;100.00;58621.06;4959327;28;20231;-59
2022/09/29 07:23:28;;;;;;;9.50;8.50;;;;;;;-145.23;100.00;58621.06;4960087;28;20241;-59
2022/09/29 07:25:55;;;;;;;9.97;8.83;;;;;;;-145.23;100.00;58621.06;4958153;28;20293;-59
2022/09/29 07:28:22;;;;;;;11.63;9.57;;;;;;;-145.23;100.00;58621.06;4963032;28;20239;-59
2022/09/29 07:30:58;;;;;;;12.03;10.73;;;;;;;-145.23;100.00;58621.06;4962760;28;20317;-57
2022/09/29 07:33:25;;;;;;;12.87;10.80;;;;;;;-145.23;100.00;58621.06;4957206;28;20238;-57
2022/09/29 07:35:52;;;;;;;12.57;11.13;;;;;;;-145.23;100.00;58621.06;4964638;28;20234;-58
2022/09/29 07:38:19;;;;;;;11.43;10.27;;;;;;;-145.23;100.00;58621.06;4956082;28;20243;-57
2022/09/29 07:40:47;;;;;;;13.37;11.00;;;;;;;-145.23;100.00;58621.06;4954244;28;20380;-57
2022/09/29 07:43:14;;;;;;;12.57;10.70;;;;;;;-145.23;100.00;58621.06;4958839;28;20249;-57
2022/09/29 07:45:47;;;;;;;12.57;10.17;;;;;;;-145.23;100.00;58621.06;4955254;28;20242;-57
2022/09/29 07:48:14;;;;;;;13.83;11.33;;;;;;;-145.23;100.00;58621.06;4952489;28;20239;-57
2022/09/29 07:50:41;;;;;;;13.53;11.57;;;;;;;-145.23;100.00;58621.06;4962265;28;20248;-57
2022/09/29 07:53:08;;;;;;;13.67;10.93;;;;;;;-145.23;100.00;58621.06;4961696;28;20824;-57
2022/09/29 07:55:34;;;;;;;13.17;11.77;;;;;;;-145.23;100.00;58621.06;4958688;28;20437;-57
2022/09/29 07:58:03;;;;;;;15.17;11.03;;;;;;;-145.23;100.00;58621.06;4956982;28;20238;-57
2022/09/29 08:00:31;;;;;;;14.53;11.87;;;;;;;-145.23;100.00;58621.06;4955678;28;20866;-56
2022/09/29 08:03:01;;;;;;;13.27;10.53;;;;;;;-145.23;100.00;58621.06;4951807;28;20253;-56
2022/09/29 08:05:28;;;;;;;14.03;11.80;;;;;;;-145.23;100.00;58621.06;4954462;28;20313;-56
2022/09/29 08:07:57;;;;;;;13.23;10.97;;;;;;;-145.23;100.00;58621.06;4955612;28;20286;-56
2022/09/29 08:10:23;;;;;;;14.13;12.57;;;;;;;-145.23;100.00;58621.06;4958099;28;20230;-55
2022/09/29 08:12:50;;;;;;;15.20;11.37;;;;;;;-145.23;100.00;58621.06;4952426;28;20925;-55
2022/09/29 08:15:18;;;;;;;12.77;10.40;;;;;;;-145.23;100.00;58621.06;4952409;28;20230;-56
2022/09/29 08:17:45;;;;;;;12.40;10.93;;;;;;;-145.23;100.00;58621.06;4954876;28;20964;-56
2022/09/29 08:20:12;;;;;;;12.83;11.30;;;;;;;-145.23;100.00;58621.06;4956875;28;20234;-55
2022/09/29 08:22:39;;;;;;;13.40;11.63;;;;;;;-145.23;100.00;58621.06;4950568;28;20242;-55
2022/09/29 08:25:06;;;;;;;16.60;11.33;;;;;;;-145.23;100.00;58621.06;4955270;28;20763;-54
2022/09/29 08:27:33;;;;;;;16.33;12.03;;;;;;;-145.23;100.00;58621.06;4952903;28;22050;-54
2022/09/29 08:30:00;;;;;;;11.60;10.40;;;;;;;-145.23;100.00;58621.06;4955046;28;20258;-55
2022/09/29 08:32:28;;;;;;;13.37;11.67;;;;;;;-145.23;100.00;58621.06;4955628;28;20703;-55
2022/09/29 08:34:55;;;;;;;12.87;10.93;;;;;;;-145.23;100.00;58621.06;4957635;28;20714;-56
2022/09/29 08:37:22;;;;;;;12.40;9.83;;;;;;;-145.23;100.00;58621.06;4957870;28;20239;-56
2022/09/29 08:39:48;;;;;;;15.07;11.13;;;;;;;-145.23;100.00;58621.06;4964622;28;20718;-55
2022/09/29 08:42:20;;;;;;;14.67;11.90;;;;;;;-145.23;100.00;58621.06;4964038;28;20242;-57
2022/09/29 08:44:50;;;;;;;12.90;11.00;;;;;;;-145.23;100.00;58621.06;4962184;28;20636;-55
2022/09/29 08:47:20;;;;;;;12.50;11.03;;;;;;;-145.23;100.00;58621.06;4961885;28;20249;-55
2022/09/29 08:49:51;;;;;;;12.90;10.97;;;;;;;-145.23;100.00;58621.06;4965470;28;20340;-55
2022/09/29 08:52:21;;;;;;;13.33;9.17;;;;;;;-145.23;100.00;58621.06;4962219;28;20325;-55
2022/09/29 08:54:49;;;;;;;15.90;11.83;;;;;;;-145.23;100.00;58621.06;4955397;28;20241;-56
2022/09/29 08:57:18;;;;;;;13.87;10.67;;;;;;;-145.23;100.00;58621.06;4964346;28;20260;-55
2022/09/29 08:59:47;;;;;;;12.03;10.30;;;;;;;-145.23;100.00;58621.06;4966896;28;20251;-55
2022/09/29 09:02:53;;;;;;;14.87;10.63;;;;;;;-145.23;100.00;58621.06;4967900;28;20234;-55
2022/09/29 09:05:30;;;;;;;9.77;8.77;;;;;;;-145.23;100.00;58621.06;4881687;29;20255;-56
2022/09/29 09:08:02;;;;;;;12.50;10.63;;;;;;;-145.23;100.00;58621.06;4946110;28;20257;-56
2022/09/29 09:10:34;;;;;;;11.60;10.20;;;;;;;-145.23;100.00;58621.06;4964570;28;20230;-56
2022/09/29 09:13:35;;;;;;;12.10;10.23;;;;;;;-145.23;100.00;58621.06;4957942;28;20586;-57
2022/09/29 09:16:10;;;;;;;11.00;9.40;;;;;;;-145.23;100.00;58621.06;4953481;28;20242;-56
2022/09/29 09:18:53;;;;;;;12.63;9.90;;;;;;;-145.23;100.00;58621.06;4963007;28;20230;-55
2022/09/29 09:21:26;;;;;;;16.20;12.30;;;;;;;-145.23;100.00;58621.06;4958282;28;20229;-57
2022/09/29 09:23:54;;;;;;;10.57;9.50;;;;;;;-145.23;100.00;58621.06;4954841;28;20774;-56
2022/09/29 09:26:28;;;;;;;11.77;10.50;;;;;;;-145.23;100.00;58621.06;4957897;28;20246;-56
2022/09/29 09:28:58;;;;;;;10.30;9.17;;;;;;;-145.23;100.00;58621.06;4962156;28;20235;-56
2022/09/29 09:31:28;;;;;;;11.57;10.23;;;;;;;-145.23;100.00;58621.06;4967267;28;20237;-56
2022/09/29 09:33:57;;;;;;;12.97;11.30;;;;;;;-145.23;100.00;58621.06;4965812;28;20796;-56
2022/09/29 09:36:33;;;;;;;13.37;10.40;;;;;;;-145.23;100.00;58621.06;4965777;28;20234;-56
2022/09/29 09:39:03;;;;;;;11.60;10.40;;;;;;;-145.23;100.00;58621.06;4964008;28;20276;-56
2022/09/29 09:41:30;;;;;;;10.40;9.30;;;;;;;-145.23;100.00;58621.06;4959551;28;20253;-56
2022/09/29 09:44:01;;;;;;;10.07;8.90;;;;;;;-145.23;100.00;58621.06;4955598;28;20242;-56
2022/09/29 09:46:32;;;;;;;10.63;9.27;;;;;;;-145.23;100.00;58621.06;4955831;28;20696;-56
2022/09/29 09:49:02;;;;;;;10.20;8.60;;;;;;;-145.23;100.00;58621.06;4964649;28;20252;-56
2022/09/29 09:51:40;;;;;;;10.77;8.77;;;;;;;-145.23;100.00;58621.06;4963193;28;20238;-56
2022/09/29 09:54:12;;;;;;;10.43;8.73;;;;;;;-145.23;100.00;58621.06;4962768;28;20320;-56
2022/09/29 09:56:56;;;;;;;10.48;8.65;;;;;;;-145.23;100.00;58621.06;4956360;28;20250;-55
2022/09/29 09:59:37;;;;;;;8.73;7.80;;;;;;;-145.23;100.00;58621.06;4956918;28;20249;-57
2022/09/29 10:02:03;;;;;;;9.75;8.18;;;;;;;-145.23;100.00;58621.06;4954625;28;20227;-55
2022/09/29 10:04:32;;;;;;;8.50;7.70;;;;;;;-145.23;100.00;58621.06;4960363;28;20239;-56
2022/09/29 10:07:01;;;;;;;8.80;7.05;;;;;;;-145.23;100.00;58621.06;4957061;28;20243;-56
2022/09/29 10:09:28;;;;;;;8.57;6.95;;;;;;;-145.23;100.00;58621.06;4963141;28;20333;-55
2022/09/29 10:11:56;;;;;;;6.20;5.70;;;;;;;-145.23;100.00;58621.06;4954340;28;20243;-57
2022/09/29 10:14:25;;;;;;;6.95;6.03;;;;;;;-145.23;100.00;58621.06;4952186;28;20246;-57
2022/09/29 10:16:56;;;;;;;6.82;5.97;;;;;;;-145.23;100.00;58621.06;4959048;28;20235;-56
2022/09/29 10:19:24;;;;;;;6.25;5.68;;;;;;;-145.23;100.00;58621.06;4952036;28;20230;-57
2022/09/29 10:21:50;;;;;;;5.97;4.70;;;;;;;-145.23;100.00;58621.06;4952605;28;20226;-55
2022/09/29 10:24:24;;;;;;;5.45;4.60;;;;;;;-145.23;100.00;58621.06;4963533;28;20265;-56
2022/09/29 10:26:54;;;;;;;5.47;4.97;;;;;;;-145.23;100.00;58621.06;4960284;28;20261;-57
2022/09/29 10:29:28;;;;;;;5.43;4.90;;;;;;;-145.23;100.00;58621.06;4956528;28;20238;-56
2022/09/29 10:32:01;;;;;;;5.82;5.22;;;;;;;-145.23;100.00;58621.06;4961111;28;20590;-57
2022/09/29 10:34:28;;;;;;;5.82;5.30;;;;;;;-145.23;100.00;58621.06;4955968;28;20316;-57
2022/09/29 10:36:58;;;;;;;8.48;5.50;;;;;;;-145.23;100.00;58621.06;4964235;28;20230;-58
2022/09/29 10:39:34;;;;;;;4.88;4.47;;;;;;;-145.23;100.00;58621.06;4958461;28;20626;-56
2022/09/29 10:42:03;;;;;;;4.05;3.60;;;;;;;-145.23;100.00;58621.06;4964428;28;20244;-56
2022/09/29 10:44:33;;;;;;;4.13;3.80;;;;;;;-145.23;100.00;58621.06;4958610;28;20239;-56
2022/09/29 10:47:00;;;;;;;3.97;3.67;;;;;;;-145.23;100.00;58621.06;4965695;28;20322;-57
2022/09/29 10:49:28;;;;;;;3.35;2.78;;;;;;;-145.23;100.00;58621.06;4964314;28;20234;-56
2022/09/29 10:51:58;;;;;;;3.92;2.58;;;;;;;-145.23;100.00;58621.06;4960798;28;20353;-57
2022/09/29 10:54:26;;;;;;;2.90;2.70;;;;;;;-145.23;100.00;58621.06;4958318;28;20235;-57
2022/09/29 10:56:55;;;;;;;2.92;2.63;;;;;;;-145.23;100.00;58621.06;4961530;28;20239;-56
2022/09/29 10:59:23;;;;;;;6.35;3.30;;;;;;;-145.23;100.00;58621.06;4965579;28;20760;-57
2022/09/29 11:01:52;;;;;;;4.00;3.35;;;;;;;-145.23;100.00;58621.06;4962029;28;20226;-57
2022/09/29 11:04:23;;;;;;;4.47;3.35;;;;;;;-145.23;100.00;58621.06;4953350;28;20330;-57
2022/09/29 11:06:50;;;;;;;3.15;2.85;;;;;;;-145.23;100.00;58621.06;4963496;28;20315;-57
2022/09/29 11:09:28;;;;;;;3.35;2.75;;;;;;;-145.23;100.00;58621.06;4956075;28;20238;-55
2022/09/29 11:11:57;;;;;;;4.25;3.85;;;;;;;-145.23;100.00;58621.06;4955159;28;20325;-57
2022/09/29 11:14:25;;;;;;;3.45;3.15;;;;;;;-145.23;100.00;58621.06;4960103;28;20322;-57
2022/09/29 11:16:55;;;;;;;3.50;2.60;;;;;;;-145.23;100.00;58621.06;4957493;28;20289;-57